createdAt,value
2018-08-22T00:01:07.267Z,62.57
2018-08-22T00:06:00.277Z,61.34
2018-08-22T00:10:53.902Z,61.54
2018-08-22T00:15:46.879Z,60.66
2018-08-22T00:20:40.199Z,60.38
2018-08-22T00:25:34.161Z,60.18
2018-08-22T00:30:27.159Z,59.94
2018-08-22T00:35:20.102Z,60.24
2018-08-22T00:40:13.857Z,59.73
2018-08-22T00:45:06.900Z,58.92
2018-08-22T00:49:59.857Z,58.27
2018-08-22T00:54:52.814Z,57.03
2018-08-22T00:59:45.839Z,57.15
2018-08-22T01:04:38.959Z,56.54
2018-08-22T01:09:31.970Z,56.62
2018-08-22T01:14:24.896Z,56.55
2018-08-22T01:19:18.504Z,56.54
2018-08-22T01:24:11.515Z,53.77
2018-08-22T01:29:04.407Z,53.87
2018-08-22T01:33:57.405Z,54.08
2018-08-22T01:38:50.471Z,54.76
2018-08-22T01:43:43.497Z,54.41
2018-08-22T01:48:36.408Z,53.31
2018-08-22T01:53:29.624Z,53.46
2018-08-22T01:58:22.662Z,55.83
2018-08-22T02:03:15.642Z,54.78
2018-08-22T02:08:08.735Z,50.98
2018-08-22T02:13:01.767Z,50.55
2018-08-22T02:17:54.811Z,52.33
2018-08-22T02:22:47.824Z,52.94
2018-08-22T02:27:40.948Z,54.73
2018-08-22T02:32:34.015Z,54.74
2018-08-22T02:37:26.999Z,51.73
2018-08-22T02:42:19.939Z,50.72
2018-08-22T02:47:13.238Z,52.13
2018-08-22T02:52:06.293Z,52.91
2018-08-22T02:56:59.231Z,53.22
2018-08-22T03:01:52.207Z,51.48
2018-08-22T03:06:45.731Z,53.31
2018-08-22T03:11:38.697Z,52.58
2018-08-22T03:16:31.845Z,51.87
2018-08-22T03:21:24.983Z,50.85
2018-08-22T03:26:17.987Z,51.94
2018-08-22T03:31:10.943Z,53.01
2018-08-22T03:36:04.056Z,52.43
2018-08-22T03:40:57.062Z,53.46
2018-08-22T03:45:50.163Z,52.94
2018-08-22T03:50:43.262Z,54.26
2018-08-22T03:55:36.276Z,53.60
2018-08-22T04:00:29.303Z,54.42
2018-08-22T04:05:22.454Z,53.89
2018-08-22T04:10:15.413Z,53.25
2018-08-22T04:15:08.445Z,53.02
2018-08-22T04:20:01.441Z,53.04
2018-08-22T04:24:54.738Z,51.49
2018-08-22T04:29:47.779Z,50.92
2018-08-22T04:34:40.780Z,51.15
2018-08-22T04:39:34.008Z,51.67
2018-08-22T04:44:26.917Z,50.81
2018-08-22T04:49:19.925Z,48.78
2018-08-22T04:54:12.936Z,49.74
2018-08-22T04:59:06.020Z,48.60
2018-08-22T05:03:59.088Z,49.85
2018-08-22T05:08:52.233Z,49.42
2018-08-22T05:13:45.179Z,49.12
2018-08-22T05:18:38.236Z,47.67
2018-08-22T05:23:31.191Z,46.71
2018-08-22T05:28:24.290Z,45.83
2018-08-22T05:33:17.258Z,46.64
2018-08-22T05:38:10.206Z,47.29
2018-08-22T05:43:03.493Z,46.13
2018-08-22T05:47:56.490Z,46.01
2018-08-22T05:52:49.826Z,46.06
2018-08-22T05:57:43.182Z,45.32
2018-08-22T06:02:36.146Z,45.57
2018-08-22T06:07:29.132Z,46.48
2018-08-22T06:12:22.364Z,45.91
2018-08-22T06:17:15.806Z,46.56
2018-08-22T06:22:09.370Z,46.27
2018-08-22T06:27:02.393Z,42.47
2018-08-22T06:31:55.446Z,41.29
2018-08-22T06:36:48.490Z,41.15
2018-08-22T06:41:41.706Z,41.57
2018-08-22T06:46:34.620Z,37.00
2018-08-22T06:51:27.585Z,36.80
2018-08-22T06:56:20.559Z,37.25
2018-08-22T07:01:13.555Z,38.89
2018-08-22T07:06:06.493Z,34.98
2018-08-22T07:10:59.724Z,35.28
2018-08-22T07:15:52.815Z,34.87
2018-08-22T07:20:45.886Z,34.43
2018-08-22T07:25:38.899Z,34.79
2018-08-22T07:30:31.918Z,35.75
2018-08-22T07:35:24.984Z,37.17
2018-08-22T07:40:17.991Z,36.96
2018-08-22T07:45:10.985Z,37.30
2018-08-22T07:50:04.719Z,36.10
2018-08-22T07:54:57.670Z,36.09
2018-08-22T07:59:51.713Z,35.67
2018-08-22T08:04:44.696Z,35.01
2018-08-22T08:09:37.719Z,34.88
2018-08-22T08:14:30.642Z,34.71
2018-08-22T08:19:24.239Z,35.07
2018-08-22T08:24:17.286Z,35.11
2018-08-22T08:29:10.239Z,35.38
2018-08-22T08:34:03.192Z,35.01
2018-08-22T08:38:56.162Z,34.55
2018-08-22T08:43:49.134Z,33.42
2018-08-22T08:48:42.265Z,35.23
2018-08-22T08:53:35.269Z,34.30
2018-08-22T08:58:28.292Z,34.61
2018-08-22T09:03:21.205Z,33.86
2018-08-22T09:08:14.566Z,33.72
2018-08-22T09:13:09.600Z,34.01
2018-08-22T09:18:03.575Z,33.05
2018-08-22T09:22:56.475Z,32.94
2018-08-22T09:27:49.510Z,32.82
2018-08-22T09:32:42.526Z,33.93
2018-08-22T09:37:35.448Z,33.79
2018-08-22T09:42:28.464Z,33.29
2018-08-22T09:47:21.535Z,33.34
2018-08-22T09:52:14.878Z,32.97
2018-08-22T09:57:07.997Z,32.47
2018-08-22T10:02:00.965Z,32.38
2018-08-22T10:06:54.110Z,32.34
2018-08-22T10:11:47.081Z,31.98
2018-08-22T10:16:40.319Z,33.37
2018-08-22T10:21:33.297Z,32.31
2018-08-22T10:26:26.327Z,32.18
2018-08-22T10:31:19.307Z,32.19
2018-08-22T10:36:12.262Z,32.61
2018-08-22T10:41:07.325Z,31.86
2018-08-22T10:46:00.407Z,32.63
2018-08-22T10:50:53.431Z,32.29
2018-08-22T10:55:46.645Z,32.92
2018-08-22T11:00:39.772Z,31.99
2018-08-22T11:05:32.738Z,32.36
2018-08-22T11:10:25.784Z,30.56
2018-08-22T11:15:18.978Z,29.77
2018-08-22T11:20:11.945Z,31.24
2018-08-22T11:25:16.018Z,30.47
2018-08-22T11:30:20.842Z,30.05
2018-08-22T11:35:12.573Z,30.42
2018-08-22T11:40:05.606Z,30.10
2018-08-22T11:44:58.592Z,30.29
2018-08-22T11:49:51.618Z,29.83
2018-08-22T11:54:44.881Z,26.28
2018-08-22T11:59:38.598Z,26.78
2018-08-22T12:04:34.629Z,27.71
2018-08-22T12:09:27.946Z,28.10
2018-08-22T12:14:20.852Z,29.01
2018-08-22T12:19:13.800Z,28.55
2018-08-22T12:24:06.774Z,29.42
2018-08-22T12:28:59.967Z,27.97
2018-08-22T12:33:52.879Z,29.00
2018-08-22T12:38:45.983Z,28.98
2018-08-22T12:43:38.994Z,28.38
2018-08-22T12:48:32.010Z,28.32
2018-08-22T12:53:25.057Z,27.81
2018-08-22T12:58:18.092Z,28.01
2018-08-22T13:03:11.137Z,28.29
2018-08-22T13:08:04.070Z,28.12
2018-08-22T13:12:56.985Z,28.78
2018-08-22T13:17:50.327Z,29.13
2018-08-22T13:22:43.406Z,30.47
2018-08-22T13:27:36.383Z,34.74
2018-08-22T13:32:29.912Z,34.91
2018-08-22T13:37:22.879Z,34.91
2018-08-22T13:42:16.200Z,34.16
2018-08-22T13:47:09.472Z,34.06
2018-08-22T13:52:02.539Z,34.58
2018-08-22T13:56:55.587Z,33.55
2018-08-22T14:01:48.873Z,32.46
2018-08-22T14:06:41.920Z,31.97
2018-08-22T14:11:34.922Z,32.95
2018-08-22T14:16:28.198Z,31.95
2018-08-22T14:21:21.090Z,31.84
2018-08-22T14:26:14.083Z,31.21
2018-08-22T14:31:07.215Z,31.58
2018-08-22T14:36:02.071Z,30.30
2018-08-22T14:40:55.640Z,32.08
2018-08-22T14:45:48.627Z,30.35
2018-08-22T14:50:42.103Z,31.18
2018-08-22T14:55:35.048Z,30.60
2018-08-22T15:00:29.062Z,31.34
2018-08-22T15:05:22.487Z,30.82
2018-08-22T15:10:17.296Z,30.40
2018-08-22T15:15:10.449Z,30.68
2018-08-22T15:20:03.576Z,30.49
2018-08-22T15:24:56.788Z,30.20
2018-08-22T15:29:50.186Z,29.75
2018-08-22T15:34:55.181Z,29.64
2018-08-22T15:39:48.381Z,28.22
2018-08-22T15:44:41.465Z,28.76
2018-08-22T15:49:35.574Z,29.32
2018-08-22T15:54:28.708Z,28.12
2018-08-22T15:59:22.091Z,28.84
2018-08-22T16:04:21.883Z,29.28
2018-08-22T16:09:32.750Z,29.01
2018-08-22T16:14:26.422Z,29.12
2018-08-22T16:19:19.672Z,28.59
2018-08-22T16:24:13.457Z,29.17
2018-08-22T16:29:06.637Z,29.07
2018-08-22T16:33:59.675Z,29.42
2018-08-22T16:38:52.801Z,29.66
2018-08-22T16:43:48.305Z,30.86
2018-08-22T16:48:42.598Z,30.81
2018-08-22T16:53:36.625Z,31.74
2018-08-22T16:58:29.890Z,32.86
2018-08-22T17:03:23.369Z,32.55
2018-08-22T17:08:19.063Z,33.24
2018-08-22T17:13:12.035Z,33.60
2018-08-22T17:18:06.676Z,33.92
2018-08-22T17:22:59.777Z,35.07
2018-08-22T17:27:52.854Z,34.92
2018-08-22T17:32:45.914Z,34.55
2018-08-22T17:37:48.885Z,35.54
2018-08-22T17:42:41.900Z,36.93
2018-08-22T17:47:34.922Z,37.34
2018-08-22T17:52:28.198Z,38.21
2018-08-22T17:57:22.660Z,39.01
2018-08-22T18:02:16.216Z,39.22
2018-08-22T18:07:09.216Z,40.32
2018-08-22T18:12:02.421Z,40.90
2018-08-22T18:17:00.076Z,41.15
2018-08-22T18:21:53.338Z,41.93
2018-08-22T18:26:46.962Z,42.80
2018-08-22T18:31:40.195Z,43.31
2018-08-22T18:36:33.291Z,44.08
2018-08-22T18:41:27.659Z,44.05
2018-08-22T18:46:21.992Z,44.93
2018-08-22T18:51:15.319Z,44.91
2018-08-22T18:56:16.454Z,46.13
2018-08-22T19:01:09.690Z,46.81
2018-08-22T19:06:03.355Z,46.43
2018-08-22T19:10:56.519Z,46.04
2018-08-22T19:15:54.505Z,46.08
2018-08-22T19:20:47.964Z,47.08
2018-08-22T19:25:41.810Z,47.24
2018-08-22T19:30:36.233Z,47.06
2018-08-22T19:35:29.558Z,48.58
2018-08-22T19:40:24.877Z,48.98
2018-08-22T19:45:17.857Z,49.71
2018-08-22T19:50:10.904Z,49.02
2018-08-22T19:55:06.950Z,49.63
2018-08-22T20:00:01.321Z,49.10
2018-08-22T20:04:55.477Z,49.58
2018-08-22T20:09:49.815Z,50.09
2018-08-22T20:14:51.657Z,50.29
2018-08-22T20:19:48.179Z,50.66
2018-08-22T20:24:41.451Z,50.11
2018-08-22T20:29:34.539Z,49.88
2018-08-22T20:34:27.519Z,50.10
2018-08-22T20:39:20.454Z,50.20
2018-08-22T20:44:16.195Z,50.63
2018-08-22T20:49:09.118Z,51.02
2018-08-22T20:54:10.363Z,50.05
2018-08-22T20:59:03.779Z,49.83
2018-08-22T21:03:56.803Z,50.07
2018-08-22T21:08:49.796Z,50.10
2018-08-22T21:13:42.876Z,50.38
2018-08-22T21:18:35.811Z,49.96
2018-08-22T21:23:28.823Z,50.36
2018-08-22T21:28:27.941Z,50.15
2018-08-22T21:33:20.973Z,49.97
2018-08-22T21:38:17.950Z,50.26
2018-08-22T21:43:12.562Z,49.27
2018-08-22T21:48:14.850Z,49.17
2018-08-22T21:53:08.820Z,48.20
2018-08-22T21:58:02.026Z,49.05
2018-08-22T22:02:55.199Z,49.86
2018-08-22T22:07:48.453Z,48.45
2018-08-22T22:12:41.388Z,47.60
2018-08-22T22:17:34.495Z,47.76
2018-08-22T22:22:27.547Z,47.67
2018-08-22T22:27:20.556Z,47.58
2018-08-22T22:32:13.984Z,47.57
2018-08-22T22:37:06.921Z,46.14
2018-08-22T22:41:59.949Z,43.88
2018-08-22T22:46:53.563Z,44.55
2018-08-22T22:51:46.583Z,42.81
2018-08-22T22:56:39.562Z,43.06
2018-08-22T23:01:32.516Z,43.66
2018-08-22T23:06:25.435Z,42.33
2018-08-22T23:11:18.377Z,41.45
2018-08-22T23:16:11.263Z,41.69
2018-08-22T23:21:04.328Z,41.01
2018-08-22T23:26:10.260Z,40.67
2018-08-22T23:31:03.391Z,41.70
2018-08-22T23:35:56.335Z,41.42
2018-08-22T23:40:49.274Z,40.61
2018-08-22T23:45:50.868Z,41.01
2018-08-22T23:50:48.942Z,41.47
2018-08-22T23:55:41.845Z,41.47
